createdAt,value
2022-12-07T00:01:28.974Z,92401.25
2022-12-07T00:04:04.947Z,92406.81
2022-12-07T00:06:33.649Z,92399.91
2022-12-07T00:09:01.508Z,92400.47
2022-12-07T00:11:29.790Z,92408.97
2022-12-07T00:13:59.776Z,92413.13
2022-12-07T00:16:31.810Z,92414.72
2022-12-07T00:19:00.226Z,92412.94
2022-12-07T00:21:33.904Z,92427.00
2022-12-07T00:24:03.632Z,92438.69
2022-12-07T00:26:33.379Z,92448.81
2022-12-07T00:29:03.382Z,92453.97
2022-12-07T00:31:39.825Z,92460.31
2022-12-07T00:34:08.786Z,92464.47
2022-12-07T00:36:36.635Z,92459.50
2022-12-07T00:39:05.063Z,92453.56
2022-12-07T00:41:32.848Z,92476.94
2022-12-07T00:44:02.048Z,92499.00
2022-12-07T00:46:33.737Z,92503.34
2022-12-07T00:49:01.967Z,92506.13
2022-12-07T00:51:29.970Z,92459.28
2022-12-07T00:53:57.838Z,92465.44
2022-12-07T00:56:28.731Z,92431.56
2022-12-07T00:58:59.191Z,92418.09
2022-12-07T01:01:29.476Z,92400.47
2022-12-07T01:03:58.805Z,92387.41
2022-12-07T01:06:27.910Z,92375.28
2022-12-07T01:08:56.328Z,92360.25
2022-12-07T01:11:27.028Z,92345.78
2022-12-07T01:13:56.608Z,92330.34
2022-12-07T01:16:26.954Z,92323.59
2022-12-07T01:18:57.071Z,92299.25
2022-12-07T01:21:28.792Z,92302.81
2022-12-07T01:23:58.803Z,92287.56
2022-12-07T01:26:27.910Z,92278.81
2022-12-07T01:28:56.473Z,92274.28
2022-12-07T01:31:25.702Z,92292.13
2022-12-07T01:33:58.583Z,92288.75
2022-12-07T01:36:30.080Z,92297.88
2022-12-07T01:39:01.059Z,92282.38
2022-12-07T01:41:31.420Z,92321.22
2022-12-07T01:44:19.922Z,92315.28
2022-12-07T01:46:49.549Z,92311.91
2022-12-07T01:49:24.294Z,92294.88
2022-12-07T01:51:59.388Z,92272.25
2022-12-07T01:54:28.769Z,92323.41
2022-12-07T01:56:58.925Z,92330.94
2022-12-07T01:59:28.023Z,92337.47
2022-12-07T02:01:58.461Z,92352.53
2022-12-07T02:04:26.707Z,92335.47
2022-12-07T02:06:57.444Z,92344.19
2022-12-07T02:09:25.507Z,92321.63
2022-12-07T02:11:55.618Z,92347.38
2022-12-07T02:14:23.725Z,92355.69
2022-12-07T02:17:05.662Z,92348.16
2022-12-07T02:20:10.751Z,92375.50
2022-12-07T02:23:13.524Z,92367.97
2022-12-07T02:26:00.188Z,92377.47
2022-12-07T02:28:33.383Z,92371.94
2022-12-07T02:31:09.502Z,92361.63
2022-12-07T02:33:43.603Z,92374.91
2022-12-07T02:36:19.114Z,92390.59
2022-12-07T02:38:54.064Z,92397.88
2022-12-07T02:41:28.340Z,92396.91
2022-12-07T02:43:58.506Z,92402.84
2022-12-07T02:46:30.983Z,92397.88
2022-12-07T02:49:00.484Z,92395.72
2022-12-07T02:51:31.962Z,92396.34
2022-12-07T02:54:00.904Z,92384.84
2022-12-07T02:56:39.918Z,92322.34
2022-12-07T02:59:20.057Z,92387.22
2022-12-07T03:01:58.137Z,92385.44
2022-12-07T03:04:38.595Z,92385.63
2022-12-07T03:07:13.503Z,92373.31
2022-12-07T03:09:50.587Z,92360.84
2022-12-07T03:12:23.396Z,92346.59
2022-12-07T03:14:58.970Z,92362.44
2022-12-07T03:17:33.259Z,92363.22
2022-12-07T03:20:08.787Z,92366.59
2022-12-07T03:22:45.451Z,92372.34
2022-12-07T03:25:17.689Z,92374.31
2022-12-07T03:27:53.126Z,92396.53
2022-12-07T03:30:24.074Z,92401.25
2022-12-07T03:32:57.248Z,92417.09
2022-12-07T03:35:28.962Z,92410.75
2022-12-07T03:38:00.184Z,92412.53
2022-12-07T03:40:33.058Z,92404.06
2022-12-07T03:43:02.588Z,92397.31
2022-12-07T03:45:39.281Z,92418.09
2022-12-07T03:48:18.664Z,92414.72
2022-12-07T03:50:54.852Z,92420.28
2022-12-07T03:53:28.771Z,92437.72
2022-12-07T03:55:59.493Z,92468.63
2022-12-07T03:58:29.445Z,92477.56
2022-12-07T04:00:57.520Z,92469.81
2022-12-07T04:03:28.112Z,92478.34
2022-12-07T04:05:57.175Z,92473.38
2022-12-07T04:08:25.593Z,92475.97
2022-12-07T04:10:53.453Z,92480.13
2022-12-07T04:13:21.267Z,92485.91
2022-12-07T04:15:49.111Z,92479.34
2022-12-07T04:18:17.204Z,92466.66
2022-12-07T04:20:47.510Z,92471.81
2022-12-07T04:23:15.368Z,92465.84
2022-12-07T04:25:43.541Z,92475.16
2022-12-07T04:28:11.316Z,92492.44
2022-12-07T04:30:39.076Z,92510.88
2022-12-07T04:33:06.948Z,92519.00
2022-12-07T04:35:34.788Z,92519.00
2022-12-07T04:38:07.327Z,92506.31
2022-12-07T04:40:35.109Z,92538.44
2022-12-07T04:43:02.900Z,92545.59
2022-12-07T04:45:30.736Z,92567.41
2022-12-07T04:47:58.457Z,92578.09
2022-12-07T04:50:27.640Z,92581.28
2022-12-07T04:52:55.513Z,92591.25
2022-12-07T04:55:24.645Z,92582.28
2022-12-07T04:57:52.417Z,92583.06
2022-12-07T05:00:20.954Z,92584.66
2022-12-07T05:02:50.740Z,92579.09
2022-12-07T05:05:18.559Z,92559.88
2022-12-07T05:07:46.410Z,92560.66
2022-12-07T05:10:14.167Z,92551.53
2022-12-07T05:12:43.352Z,92549.94
2022-12-07T05:15:11.831Z,92535.88
2022-12-07T05:17:39.832Z,92533.28
2022-12-07T05:20:09.080Z,92541.63
2022-12-07T05:22:39.398Z,92524.56
2022-12-07T05:25:08.103Z,92534.47
2022-12-07T05:27:35.877Z,92530.13
2022-12-07T05:30:06.084Z,92514.06
2022-12-07T05:32:33.850Z,92491.66
2022-12-07T05:35:01.673Z,92484.47
2022-12-07T05:37:29.480Z,92481.72
2022-12-07T05:39:58.337Z,92463.47
2022-12-07T05:42:26.342Z,92453.56
2022-12-07T05:44:54.911Z,92446.44
2022-12-07T05:47:24.199Z,92460.31
2022-12-07T05:49:51.925Z,92450.41
2022-12-07T05:52:20.187Z,92442.88
2022-12-07T05:54:47.890Z,92427.00
2022-12-07T05:57:16.050Z,92418.69
2022-12-07T05:59:43.056Z,92402.03
2022-12-07T06:02:13.163Z,92383.84
2022-12-07T06:04:44.975Z,92371.53
2022-12-07T06:07:14.272Z,92359.25
2022-12-07T06:09:42.836Z,92340.84
2022-12-07T06:12:29.837Z,92330.13
2022-12-07T06:14:57.961Z,92320.84
2022-12-07T06:17:27.158Z,92309.34
2022-12-07T06:19:56.436Z,92298.47
2022-12-07T06:22:24.244Z,92304.59
2022-12-07T06:24:52.597Z,92300.03
2022-12-07T06:27:20.397Z,92286.00
2022-12-07T06:29:48.721Z,92278.03
2022-12-07T06:32:17.112Z,92268.13
2022-12-07T06:34:46.130Z,92268.13
2022-12-07T06:37:15.249Z,92316.69
2022-12-07T06:39:43.144Z,92332.31
2022-12-07T06:42:12.966Z,92327.56
2022-12-07T06:44:40.743Z,92311.72
2022-12-07T06:47:39.572Z,92294.31
2022-12-07T06:49:58.401Z,92297.47
2022-12-07T06:52:28.122Z,92307.75
2022-12-07T06:54:55.934Z,92298.66
2022-12-07T06:57:23.709Z,92281.03
2022-12-07T06:59:51.487Z,92282.81
2022-12-07T07:02:19.573Z,92286.97
2022-12-07T07:04:47.420Z,92276.09
2022-12-07T07:07:15.478Z,92269.34
2022-12-07T07:09:44.594Z,92281.25
2022-12-07T07:12:12.486Z,92268.38
2022-12-07T07:14:40.287Z,92270.94
2022-12-07T07:17:08.116Z,92265.97
2022-12-07T07:19:35.996Z,92278.66
2022-12-07T07:22:04.087Z,92256.06
2022-12-07T07:24:32.235Z,92282.81
2022-12-07T07:27:01.636Z,92280.25
2022-12-07T07:29:29.422Z,92276.09
2022-12-07T07:32:01.887Z,92272.88
2022-12-07T07:34:32.816Z,92267.75
2022-12-07T07:37:00.751Z,92271.31
2022-12-07T07:39:28.462Z,92255.47
2022-12-07T07:41:56.182Z,92264.56
2022-12-07T07:44:31.600Z,92252.31
2022-12-07T07:47:02.552Z,92249.72
2022-12-07T07:49:30.330Z,92250.53
2022-12-07T07:51:59.103Z,92256.25
2022-12-07T07:54:26.873Z,92256.66
2022-12-07T07:56:55.207Z,92255.47
2022-12-07T07:59:25.723Z,92254.69
2022-12-07T08:01:55.102Z,92280.25
2022-12-07T08:04:23.184Z,92286.00
2022-12-07T08:06:50.962Z,92291.94
2022-12-07T08:09:18.736Z,92279.25
2022-12-07T08:11:46.508Z,92303.00
2022-12-07T08:14:14.266Z,92307.56
2022-12-07T08:16:42.054Z,92310.34
2022-12-07T08:19:11.126Z,92315.88
2022-12-07T08:21:39.577Z,92321.63
2022-12-07T08:24:08.167Z,92330.75
2022-12-07T08:26:35.983Z,92355.69
2022-12-07T08:29:03.811Z,92367.78
2022-12-07T08:31:32.461Z,92386.44
2022-12-07T08:34:00.963Z,92396.34
2022-12-07T08:36:30.558Z,92403.63
2022-12-07T08:41:46.336Z,92412.94
2022-12-07T08:44:14.409Z,92430.19
2022-12-07T08:46:49.145Z,92435.34
2022-12-07T08:49:22.094Z,92432.56
2022-12-07T08:51:52.697Z,92450.19
2022-12-07T08:54:21.610Z,92455.94
2022-12-07T08:56:57.104Z,92462.28
2022-12-07T08:59:28.790Z,92468.25
2022-12-07T09:01:56.745Z,92464.66
2022-12-07T09:04:24.579Z,92470.81
2022-12-07T09:06:55.480Z,92486.50
2022-12-07T09:09:23.314Z,92491.66
2022-12-07T09:11:51.068Z,92492.66
2022-12-07T09:14:19.990Z,92484.91
2022-12-07T09:16:47.841Z,92485.72
2022-12-07T09:19:15.907Z,92499.00
2022-12-07T09:21:43.747Z,92517.84
2022-12-07T09:24:13.794Z,92543.97
2022-12-07T09:26:42.299Z,92592.81
2022-12-07T09:29:10.591Z,92625.16
2022-12-07T09:31:39.667Z,92665.84
2022-12-07T09:34:08.388Z,92699.22
2022-12-07T09:36:36.613Z,92751.63
2022-12-07T09:39:05.727Z,92795.72
2022-12-07T09:41:35.228Z,92833.88
2022-12-07T09:44:06.755Z,92868.06
2022-12-07T09:46:37.892Z,92909.00
2022-12-07T09:49:06.670Z,92933.69
2022-12-07T09:51:34.794Z,92953.34
2022-12-07T09:54:03.829Z,92983.00
2022-12-07T09:56:34.036Z,92991.34
2022-12-07T09:59:05.080Z,93016.03
2022-12-07T10:01:34.735Z,93041.91
2022-12-07T10:04:13.963Z,93052.84
2022-12-07T10:06:42.437Z,93081.09
2022-12-07T10:09:12.893Z,93121.13
2022-12-07T10:12:07.541Z,93166.91
2022-12-07T10:17:37.114Z,93249.22
2022-12-07T10:20:28.753Z,93286.84
2022-12-07T10:23:02.909Z,93336.25
2022-12-07T10:25:36.537Z,93382.13
2022-12-07T10:28:17.366Z,93442.19
2022-12-07T10:30:58.761Z,93467.13
2022-12-07T10:33:36.524Z,93510.59
2022-12-07T10:36:22.106Z,93545.75
2022-12-07T10:38:53.773Z,93573.84
2022-12-07T10:41:22.345Z,93573.66
2022-12-07T10:43:53.358Z,93637.78
2022-12-07T10:46:56.007Z,93658.75
2022-12-07T10:49:59.243Z,93695.53
2022-12-07T10:52:41.954Z,93726.31
2022-12-07T10:55:18.960Z,93814.44
2022-12-07T10:58:01.079Z,93819.88
2022-12-07T11:00:37.004Z,93848.63
2022-12-07T11:03:26.697Z,93875.47
2022-12-07T11:05:59.151Z,93919.88
2022-12-07T11:08:47.470Z,93962.06
2022-12-07T11:11:18.800Z,93972.50
2022-12-07T11:13:53.789Z,94003.72
2022-12-07T11:16:28.958Z,93949.91
2022-12-07T11:19:09.491Z,93921.03
2022-12-07T11:21:47.288Z,93932.66
2022-12-07T11:27:31.388Z,93957.84
2022-12-07T11:30:10.263Z,94041.56
2022-12-07T11:32:54.566Z,94107.66
2022-12-07T11:35:38.561Z,94116.09
2022-12-07T11:38:13.673Z,94194.19
2022-12-07T11:40:45.477Z,94202.28
2022-12-07T11:43:22.388Z,94185.34
2022-12-07T11:45:57.773Z,94125.28
2022-12-07T11:48:33.466Z,94078.41
2022-12-07T11:51:05.405Z,94050.75
2022-12-07T11:53:38.062Z,93989.66
2022-12-07T11:56:11.997Z,93956.25
2022-12-07T11:58:50.294Z,93933.63
2022-12-07T12:01:31.299Z,93926.47
2022-12-07T12:04:08.772Z,93892.63
2022-12-07T12:06:38.208Z,93869.00
2022-12-07T12:15:25.797Z,93822.22
2022-12-07T12:18:16.887Z,93828.03
2022-12-07T12:20:51.351Z,93834.00
2022-12-07T12:23:24.144Z,93832.03
2022-12-07T12:25:54.843Z,93826.41
2022-12-07T12:28:27.165Z,93827.03
2022-12-07T12:31:11.333Z,93822.84
2022-12-07T12:33:44.871Z,93821.84
2022-12-07T12:36:45.102Z,93827.84
2022-12-07T12:39:16.416Z,93795.06
2022-12-07T12:42:07.804Z,93784.44
2022-12-07T12:45:06.291Z,93784.63
2022-12-07T12:47:59.133Z,93766.03
2022-12-07T12:50:32.987Z,93760.22
2022-12-07T12:53:05.634Z,93750.22
2022-12-07T12:56:11.391Z,93753.44
2022-12-07T12:58:42.084Z,93745.25
2022-12-07T13:01:46.647Z,93717.47
2022-12-07T13:04:39.705Z,93703.47
2022-12-07T13:07:13.954Z,93703.47
2022-12-07T13:09:46.424Z,93689.91
2022-12-07T13:12:18.186Z,93687.50
2022-12-07T13:14:57.151Z,93660.38
2022-12-07T13:18:03.582Z,93658.75
2022-12-07T13:20:51.610Z,93647.13
2022-12-07T13:23:24.262Z,93622.78
2022-12-07T13:25:57.826Z,93616.19
2022-12-07T13:28:34.364Z,93585.44
2022-12-07T13:31:13.466Z,93575.28
2022-12-07T13:33:44.760Z,93551.09
2022-12-07T13:36:21.141Z,93529.34
2022-12-07T13:38:54.756Z,93505.19
2022-12-07T13:41:24.337Z,93477.47
2022-12-07T13:44:02.353Z,93449.13
2022-12-07T13:46:43.730Z,93425.72
2022-12-07T13:49:20.169Z,93409.22
2022-12-07T13:51:48.311Z,93389.25
2022-12-07T13:54:17.060Z,93358.88
2022-12-07T13:56:45.249Z,93339.66
2022-12-07T13:59:20.379Z,93345.97
2022-12-07T14:01:50.208Z,93313.28
2022-12-07T14:04:33.097Z,93308.53
2022-12-07T14:07:01.884Z,93324.25
2022-12-07T14:09:30.827Z,93315.88
2022-12-07T14:11:59.758Z,93290.81
2022-12-07T14:14:36.894Z,93324.06
2022-12-07T14:17:19.657Z,93304.75
2022-12-07T14:19:53.319Z,93304.97
2022-12-07T14:22:31.377Z,93286.63
2022-12-07T14:25:20.285Z,93249.59
2022-12-07T14:27:56.546Z,93238.03
2022-12-07T14:30:28.028Z,93210.50
2022-12-07T14:33:01.177Z,93210.69
2022-12-07T14:35:30.302Z,93215.50
2022-12-07T14:37:58.550Z,93193.97
2022-12-07T14:40:27.915Z,93171.47
2022-12-07T14:42:59.187Z,93162.13
2022-12-07T14:45:29.077Z,93145.41
2022-12-07T14:53:38.888Z,93091.63
2022-12-07T14:56:07.563Z,93060.59
2022-12-07T14:58:35.369Z,93047.44
2022-12-07T15:01:04.663Z,93010.34
2022-12-07T15:03:32.655Z,93015.00
2022-12-07T15:06:00.552Z,93018.97
2022-12-07T15:08:28.464Z,92980.94
2022-12-07T15:10:56.307Z,93010.22
2022-12-07T15:13:55.884Z,93004.06
2022-12-07T15:16:25.224Z,92968.44
2022-12-07T15:19:26.378Z,92949.16
2022-12-07T15:21:45.318Z,92914.16
2022-12-07T15:24:14.277Z,92891.88
2022-12-07T15:26:43.382Z,92870.84
2022-12-07T15:29:12.578Z,92850.34
2022-12-07T15:31:55.954Z,92820.78
2022-12-07T15:34:26.419Z,92813.41
2022-12-07T15:36:54.197Z,92807.03
2022-12-07T15:39:22.625Z,92810.41
2022-12-07T15:41:51.839Z,92786.16
2022-12-07T15:44:49.297Z,92756.97
2022-12-07T15:47:19.011Z,92749.44
2022-12-07T15:49:46.873Z,92742.09
2022-12-07T15:52:14.806Z,92727.00
2022-12-07T15:54:42.756Z,92734.53
2022-12-07T15:57:10.537Z,92735.53
2022-12-07T15:59:38.247Z,92726.19
2022-12-07T16:02:07.565Z,92716.28
2022-12-07T16:04:36.756Z,92697.97
2022-12-07T16:07:05.196Z,92682.50
2022-12-07T16:09:34.426Z,92686.84
2022-12-07T16:12:02.210Z,92689.66
2022-12-07T16:14:33.108Z,92674.56
2022-12-07T16:17:00.950Z,92681.31
2022-12-07T16:19:28.660Z,92678.72
2022-12-07T16:21:57.820Z,92659.47
2022-12-07T16:24:25.626Z,92647.19
2022-12-07T16:26:53.728Z,92656.31
2022-12-07T16:29:23.182Z,92674.56
2022-12-07T16:31:51.870Z,92672.19
2022-12-07T16:34:20.139Z,92659.47
2022-12-07T16:37:03.780Z,92672.97
2022-12-07T16:39:36.483Z,92660.47
2022-12-07T16:42:05.496Z,92620.50
2022-12-07T16:44:33.603Z,92639.44
2022-12-07T16:47:02.501Z,92647.97
2022-12-07T16:49:30.527Z,92643.81
2022-12-07T16:52:18.805Z,92651.16
2022-12-07T16:54:47.392Z,92685.66
2022-12-07T16:57:20.156Z,92671.97
2022-12-07T16:59:50.560Z,92659.47
2022-12-07T17:02:18.356Z,92646.38
2022-12-07T17:04:46.249Z,92638.06
2022-12-07T17:07:14.139Z,92635.06
2022-12-07T17:09:41.975Z,92637.44
2022-12-07T17:12:11.081Z,92608.28
2022-12-07T17:14:56.387Z,92598.34
2022-12-07T17:17:24.154Z,92525.25
2022-12-07T17:19:53.562Z,92577.13
2022-12-07T17:22:21.426Z,92567.41
2022-12-07T17:24:55.390Z,92560.66
2022-12-07T17:32:57.202Z,92536.06
2022-12-07T17:35:25.085Z,92535.88
2022-12-07T17:37:52.914Z,92526.53
2022-12-07T17:40:21.903Z,92536.84
2022-12-07T17:42:51.561Z,92532.50
2022-12-07T17:45:19.991Z,92524.97
2022-12-07T17:47:47.773Z,92490.44
2022-12-07T17:50:15.575Z,92513.47
2022-12-07T17:53:01.297Z,92508.69
2022-12-07T17:55:29.019Z,92507.50
2022-12-07T17:57:58.207Z,92504.34
2022-12-07T18:00:27.169Z,92509.91
2022-12-07T18:02:55.060Z,92520.78
2022-12-07T18:05:23.477Z,92505.69
2022-12-07T18:07:53.123Z,92526.94
2022-12-07T18:10:21.014Z,92545.97
2022-12-07T18:12:52.113Z,92524.16
2022-12-07T18:15:21.572Z,92526.53
2022-12-07T18:17:50.228Z,92520.19
2022-12-07T18:20:18.354Z,92526.16
2022-12-07T18:22:46.275Z,92510.69
2022-12-07T18:25:14.049Z,92515.03
2022-12-07T18:27:41.980Z,92507.50
2022-12-07T18:30:10.756Z,92517.44
2022-12-07T18:32:39.964Z,92512.47
2022-12-07T18:35:10.561Z,92499.97
2022-12-07T18:37:38.335Z,92496.81
2022-12-07T18:40:07.530Z,92497.59
2022-12-07T18:42:35.439Z,92485.91
2022-12-07T18:45:05.285Z,92493.63
2022-12-07T18:47:33.347Z,92490.44
2022-12-07T18:50:02.661Z,92488.84
2022-12-07T18:52:30.427Z,92486.88
2022-12-07T18:54:58.282Z,92488.66
2022-12-07T18:57:26.254Z,92486.25
2022-12-07T18:59:54.049Z,92483.69
2022-12-07T19:02:21.847Z,92476.94
2022-12-07T19:04:49.933Z,92475.38
2022-12-07T19:07:19.093Z,92470.22
2022-12-07T19:09:46.852Z,92461.88
2022-12-07T19:12:15.984Z,92467.84
2022-12-07T19:14:43.886Z,92456.94
2022-12-07T19:17:15.665Z,92446.03
2022-12-07T19:19:45.271Z,92440.28
2022-12-07T19:22:15.451Z,92432.75
2022-12-07T19:24:46.426Z,92431.38
2022-12-07T19:27:15.544Z,92421.47
2022-12-07T19:29:44.136Z,92409.19
2022-12-07T19:32:12.820Z,92418.69
2022-12-07T19:34:42.230Z,92420.47
2022-12-07T19:37:11.604Z,92423.84
2022-12-07T19:39:40.082Z,92419.06
2022-12-07T19:42:09.377Z,92422.84
2022-12-07T19:44:38.630Z,92412.53
2022-12-07T19:47:07.633Z,92415.53
2022-12-07T19:49:37.419Z,92402.03
2022-12-07T19:52:07.049Z,92405.25
2022-12-07T19:54:36.033Z,92398.13
2022-12-07T19:57:05.672Z,92382.25
2022-12-07T19:59:35.705Z,92369.94
2022-12-07T20:02:03.806Z,92371.53
2022-12-07T20:04:35.630Z,92385.78
2022-12-07T20:07:04.982Z,92381.03
2022-12-07T20:09:32.938Z,92365.78
2022-12-07T20:12:18.166Z,92362.44
2022-12-07T20:14:47.721Z,92374.13
2022-12-07T20:17:15.971Z,92364.41
2022-12-07T20:19:44.223Z,92350.94
2022-12-07T20:22:13.447Z,92358.66
2022-12-07T20:24:41.173Z,92362.44
2022-12-07T20:27:08.947Z,92347.38
2022-12-07T20:29:36.770Z,92335.88
2022-12-07T20:32:06.727Z,92327.56
2022-12-07T20:34:34.558Z,92302.63
2022-12-07T20:37:02.267Z,92292.13
2022-12-07T20:39:30.777Z,92316.09
2022-12-07T20:42:17.952Z,92286.75
2022-12-07T20:44:45.730Z,92299.44
2022-12-07T20:47:15.171Z,92320.03
2022-12-07T20:49:43.097Z,92339.25
2022-12-07T20:52:10.871Z,92367.75
2022-12-07T20:54:38.569Z,92380.66
2022-12-07T20:57:06.465Z,92415.31
2022-12-07T20:59:39.842Z,92392.38
2022-12-07T21:02:12.153Z,92368.75
2022-12-07T21:04:41.420Z,92377.28
2022-12-07T21:07:09.504Z,92340.63
2022-12-07T21:09:37.916Z,92345.78
2022-12-07T21:12:06.467Z,92343.22
2022-12-07T21:14:34.245Z,92324.19
2022-12-07T21:17:02.107Z,92323.41
2022-12-07T21:19:29.926Z,92352.53
2022-12-07T21:21:59.377Z,92347.38
2022-12-07T21:24:27.209Z,92336.88
2022-12-07T21:26:55.012Z,92292.91
2022-12-07T21:29:34.627Z,92273.69
2022-12-07T21:32:10.493Z,92266.56
2022-12-07T21:34:38.776Z,92265.56
2022-12-07T21:37:08.091Z,92248.75
2022-12-07T21:39:35.972Z,92293.50
2022-12-07T21:42:04.099Z,92305.00
2022-12-07T21:44:31.802Z,92320.25
2022-12-07T21:47:00.465Z,92285.75
2022-12-07T21:49:28.347Z,92260.41
2022-12-07T21:51:56.268Z,92234.88
2022-12-07T21:54:26.237Z,92210.94
2022-12-07T21:56:54.180Z,92185.03
2022-12-07T21:59:22.152Z,92156.50
2022-12-07T22:01:51.037Z,92157.88
2022-12-07T22:04:20.744Z,92171.94
2022-12-07T22:06:49.324Z,92141.47
2022-12-07T22:09:18.807Z,92139.09
2022-12-07T22:11:48.050Z,92156.91
2022-12-07T22:14:33.782Z,92133.94
2022-12-07T22:17:03.228Z,92129.41
2022-12-07T22:19:31.062Z,92122.09
2022-12-07T22:21:59.165Z,92124.84
2022-12-07T22:24:27.021Z,92104.50
2022-12-07T22:26:56.464Z,92111.41
2022-12-07T22:29:25.952Z,92111.41
2022-12-07T22:31:54.396Z,92096.56
2022-12-07T22:34:23.632Z,92078.38
2022-12-07T22:36:51.485Z,92069.09
2022-12-07T22:39:19.229Z,92087.28
2022-12-07T22:41:47.257Z,92100.72
2022-12-07T22:44:16.550Z,92097.16
2022-12-07T22:46:44.402Z,92111.59
2022-12-07T22:49:13.363Z,92100.72
2022-12-07T22:51:44.510Z,92077.59
2022-12-07T22:54:15.352Z,92043.38
2022-12-07T22:56:44.145Z,92047.72
2022-12-07T22:59:13.954Z,92034.28
2022-12-07T23:01:43.375Z,92041.19
2022-12-07T23:04:11.324Z,92031.91
2022-12-07T23:06:39.179Z,92026.16
2022-12-07T23:09:09.268Z,92025.19
2022-12-07T23:11:58.412Z,92026.38
2022-12-07T23:14:29.221Z,92019.66
2022-12-07T23:16:58.983Z,92027.16
2022-12-07T23:19:27.408Z,92022.03
2022-12-07T23:21:55.272Z,92003.06
2022-12-07T23:27:05.363Z,92014.50
2022-12-07T23:29:33.151Z,92020.44
2022-12-07T23:32:02.501Z,92024.59
2022-12-07T23:34:30.255Z,92018.06
2022-12-07T23:36:58.121Z,92012.94
2022-12-07T23:39:26.009Z,92008.78
2022-12-07T23:41:53.810Z,91996.53
2022-12-07T23:44:21.960Z,92005.41
2022-12-07T23:46:50.052Z,91999.50
2022-12-07T23:49:19.305Z,92001.28
2022-12-07T23:51:47.152Z,91993.16
2022-12-07T23:54:15.101Z,92002.06
2022-12-07T23:56:45.667Z,92010.94
2022-12-07T23:59:13.896Z,92000.47
